Time;durP1;ratioP1;P1;durP2;ratioP2;P2;SDS_P1;SDS_P2;PMS_P1;PMS_P2;Temp;Humidity;BMP_temperature;BMP_pressure;BME280_temperature;BME280_humidity;BME280_pressure;Samples;Min_cycle;Max_cycle;Signal;HPM_P1;HPM_P2
2022/12/19 00:02:07;;;;;;;27.50;14.73;;;3.40;55.20;;;;;;4987915;28;20438;-53
2022/12/19 00:04:33;;;;;;;27.73;14.50;;;3.50;55.30;;;;;;4989637;28;20202;-54
2022/12/19 00:06:59;;;;;;;27.77;16.20;;;3.60;55.00;;;;;;4985428;28;20655;-54
2022/12/19 00:09:25;;;;;;;25.80;14.50;;;3.60;54.90;;;;;;4980039;28;20446;-53
2022/12/19 00:11:51;;;;;;;30.77;15.30;;;3.60;55.00;;;;;;4986863;28;20460;-54
2022/12/19 00:14:17;;;;;;;25.20;14.87;;;3.60;54.90;;;;;;4986229;28;20449;-54
2022/12/19 00:16:43;;;;;;;27.87;15.30;;;3.60;54.70;;;;;;4981397;28;20498;-53
2022/12/19 00:19:10;;;;;;;28.13;15.57;;;3.80;54.80;;;;;;4986903;28;20493;-54
2022/12/19 00:21:36;;;;;;;34.07;16.73;;;3.90;54.50;;;;;;4986581;28;20202;-54
2022/12/19 00:24:04;;;;;;;26.73;15.97;;;4.00;54.20;;;;;;4984523;28;20584;-53
2022/12/19 00:26:31;;;;;;;25.47;14.50;;;4.20;53.70;;;;;;4992191;28;20442;-54
2022/12/19 00:29:03;;;;;;;28.47;14.70;;;4.30;53.20;;;;;;4992117;28;21128;-54
2022/12/19 00:31:33;;;;;;;31.03;17.17;;;4.20;53.00;;;;;;4991910;28;20456;-50
2022/12/19 00:33:59;;;;;;;29.47;14.10;;;4.10;53.20;;;;;;4984902;28;20524;-51
2022/12/19 00:36:27;;;;;;;34.47;16.60;;;4.10;53.50;;;;;;4991091;28;20473;-54
2022/12/19 00:38:55;;;;;;;31.57;16.90;;;3.90;53.80;;;;;;4990316;28;20583;-53
2022/12/19 00:41:32;;;;;;;36.17;16.70;;;3.90;54.20;;;;;;4990148;28;20450;-51
2022/12/19 00:44:01;;;;;;;30.30;17.03;;;3.90;54.30;;;;;;4991241;28;20945;-51
2022/12/19 00:46:28;;;;;;;32.70;16.80;;;3.90;54.50;;;;;;4988854;28;22927;-52
2022/12/19 00:48:54;;;;;;;30.10;16.27;;;4.10;54.10;;;;;;4987626;28;20448;-53
2022/12/19 00:51:22;;;;;;;31.70;17.10;;;4.20;53.90;;;;;;4987006;28;20441;-54
2022/12/19 00:53:49;;;;;;;26.57;15.50;;;4.10;53.80;;;;;;4985392;28;20213;-51
2022/12/19 00:56:18;;;;;;;34.20;17.30;;;3.80;54.60;;;;;;4987972;28;20457;-51
2022/12/19 00:58:44;;;;;;;30.50;16.60;;;3.70;55.00;;;;;;4988393;28;20477;-50
2022/12/19 01:01:31;;;;;;;27.23;16.60;;;3.60;55.20;;;;;;4988102;28;20922;-53
2022/12/19 01:03:58;;;;;;;27.73;16.90;;;3.30;56.00;;;;;;4984403;28;20588;-53
2022/12/19 01:06:24;;;;;;;29.70;16.10;;;2.90;56.90;;;;;;4988592;28;20454;-51
2022/12/19 01:08:50;;;;;;;30.23;15.10;;;2.80;57.40;;;;;;4991902;28;20445;-50
2022/12/19 01:11:15;;;;;;;24.43;14.13;;;2.70;58.10;;;;;;4985534;28;20476;-51
2022/12/19 01:13:41;;;;;;;28.27;15.37;;;2.40;58.10;;;;;;4986720;28;20252;-52
2022/12/19 01:16:09;;;;;;;27.63;15.30;;;2.20;59.00;;;;;;4986143;28;20256;-52
2022/12/19 01:18:35;;;;;;;29.17;14.53;;;2.20;59.50;;;;;;4980115;28;20354;-50
2022/12/19 01:21:04;;;;;;;30.07;15.97;;;2.20;59.90;;;;;;4987370;28;20506;-51
2022/12/19 01:23:30;;;;;;;23.90;14.70;;;2.20;59.80;;;;;;4983219;28;20454;-50
2022/12/19 01:25:56;;;;;;;27.63;15.60;;;2.10;59.70;;;;;;4983021;28;20544;-51
2022/12/19 01:28:22;;;;;;;26.93;14.50;;;2.10;59.70;;;;;;4986248;28;20869;-50
2022/12/19 01:30:49;;;;;;;28.80;15.80;;;2.00;60.20;;;;;;4986352;28;20187;-53
2022/12/19 01:33:16;;;;;;;29.20;14.33;;;2.00;60.70;;;;;;4986073;28;20475;-50
2022/12/19 01:35:44;;;;;;;25.60;13.23;;;1.80;61.20;;;;;;4987760;28;20461;-50
2022/12/19 01:38:14;;;;;;;32.33;16.77;;;2.00;61.50;;;;;;4987256;28;20492;-50
2022/12/19 01:40:40;;;;;;;28.80;15.87;;;2.10;61.30;;;;;;4985882;28;20981;-52
2022/12/19 01:43:12;;;;;;;32.60;16.20;;;2.00;60.90;;;;;;4985968;28;20486;-52
2022/12/19 01:45:38;;;;;;;25.53;14.93;;;2.10;61.70;;;;;;4986782;28;20662;-50
2022/12/19 01:48:14;;;;;;;30.23;15.60;;;2.20;61.50;;;;;;4991045;28;20437;-50
2022/12/19 01:50:46;;;;;;;29.20;15.77;;;2.30;61.20;;;;;;4985293;28;20277;-50
2022/12/19 01:53:13;;;;;;;28.73;14.63;;;2.30;61.20;;;;;;4989891;28;20453;-51
2022/12/19 01:55:39;;;;;;;31.83;16.50;;;2.40;61.00;;;;;;4985085;28;20452;-50
2022/12/19 01:58:07;;;;;;;24.07;14.53;;;2.40;60.00;;;;;;4981366;28;20477;-51
2022/12/19 02:00:33;;;;;;;35.47;18.17;;;2.50;60.30;;;;;;4987193;28;20805;-52
2022/12/19 02:03:22;;;;;;;33.30;15.80;;;2.60;60.30;;;;;;4986295;28;20446;-53
2022/12/19 02:05:49;;;;;;;29.20;15.50;;;2.70;59.80;;;;;;4976831;28;20461;-51
2022/12/19 02:08:15;;;;;;;32.87;16.90;;;2.60;59.70;;;;;;4979488;28;20536;-50
2022/12/19 02:10:41;;;;;;;28.90;16.20;;;2.40;60.40;;;;;;4989872;28;20554;-50
2022/12/19 02:13:07;;;;;;;29.13;14.60;;;2.30;61.10;;;;;;4987887;28;20926;-50
2022/12/19 02:16:03;;;;;;;33.33;15.27;;;2.10;61.60;;;;;;4985774;28;20197;-53
2022/12/19 02:18:38;;;;;;;30.30;15.67;;;2.10;62.20;;;;;;4990003;28;20873;-51
2022/12/19 02:21:20;;;;;;;29.23;17.13;;;2.00;62.70;;;;;;4993240;28;20469;-50
2022/12/19 02:23:59;;;;;;;32.83;16.77;;;2.10;62.50;;;;;;4990845;28;20450;-50
2022/12/19 02:26:53;;;;;;;31.20;16.37;;;2.30;62.20;;;;;;4988128;28;20813;-50
2022/12/19 02:29:45;;;;;;;31.33;17.30;;;2.50;61.80;;;;;;4974919;28;20496;-50
2022/12/19 02:32:18;;;;;;;27.67;15.03;;;2.50;60.80;;;;;;4967315;28;20533;-50
2022/12/19 02:34:55;;;;;;;29.80;15.00;;;2.30;61.20;;;;;;4995634;28;20454;-52
2022/12/19 02:37:29;;;;;;;31.07;17.37;;;2.20;61.70;;;;;;4993372;28;20541;-51
2022/12/19 02:40:02;;;;;;;32.40;16.20;;;2.30;61.90;;;;;;4990880;28;20520;-50
2022/12/19 02:42:37;;;;;;;29.30;16.57;;;2.30;61.90;;;;;;4992354;28;20457;-54
2022/12/19 02:45:07;;;;;;;32.10;16.10;;;2.30;61.90;;;;;;4984113;28;20433;-54
2022/12/19 02:47:34;;;;;;;33.60;16.70;;;2.30;62.30;;;;;;4990125;28;20442;-53
2022/12/19 02:50:00;;;;;;;31.47;16.93;;;2.40;62.40;;;;;;4990323;28;20466;-53
2022/12/19 02:52:26;;;;;;;28.30;15.27;;;2.60;62.00;;;;;;4988140;28;20532;-53
2022/12/19 02:54:55;;;;;;;31.80;17.53;;;2.70;61.60;;;;;;4992352;28;20532;-53
2022/12/19 02:57:49;;;;;;;28.80;16.33;;;3.00;61.40;;;;;;4989233;28;20223;-53
2022/12/19 03:00:20;;;;;;;27.30;16.30;;;2.80;60.90;;;;;;4984662;28;20820;-52
2022/12/19 03:03:08;;;;;;;29.17;15.80;;;2.60;61.30;;;;;;4992367;28;20438;-53
2022/12/19 03:05:55;;;;;;;33.67;15.40;;;2.50;61.80;;;;;;4989462;28;20458;-54
2022/12/19 03:08:27;;;;;;;32.60;15.87;;;2.50;62.30;;;;;;4989519;28;20501;-54
2022/12/19 03:11:00;;;;;;;32.80;16.43;;;2.60;62.20;;;;;;4983022;28;20580;-53
2022/12/19 03:13:35;;;;;;;33.83;16.57;;;2.70;61.90;;;;;;4991832;28;20446;-54
2022/12/19 03:16:03;;;;;;;33.27;16.30;;;2.70;62.00;;;;;;4984667;28;20921;-54
2022/12/19 03:18:32;;;;;;;29.63;15.77;;;2.50;62.70;;;;;;4990997;28;20485;-53
2022/12/19 03:21:20;;;;;;;28.13;16.57;;;2.50;63.10;;;;;;4983881;28;20489;-50
2022/12/19 03:23:47;;;;;;;28.23;16.13;;;2.60;63.30;;;;;;4976633;28;20882;-51
2022/12/19 03:26:19;;;;;;;27.70;16.30;;;2.70;63.40;;;;;;4984522;28;20456;-53
2022/12/19 03:29:21;;;;;;;32.40;15.67;;;2.60;63.70;;;;;;4975565;28;20958;-54
2022/12/19 03:31:47;;;;;;;31.10;15.47;;;2.70;63.60;;;;;;4959956;28;20468;-50
2022/12/19 03:34:18;;;;;;;30.83;16.10;;;2.80;63.20;;;;;;4988346;28;20456;-53
2022/12/19 03:36:48;;;;;;;33.30;15.03;;;2.90;63.40;;;;;;4990380;28;20276;-50
2022/12/19 03:39:14;;;;;;;30.90;16.17;;;2.80;62.90;;;;;;4988190;28;20861;-50
2022/12/19 03:44:30;;;;;;;31.60;16.97;;;3.10;62.90;;;;;;4991372;28;20555;-50
2022/12/19 03:47:25;;;;;;;34.90;18.10;;;3.30;62.10;;;;;;4990912;28;20984;-51
2022/12/19 03:49:51;;;;;;;30.00;15.50;;;3.20;61.40;;;;;;4975718;28;20456;-50
2022/12/19 03:52:50;;;;;;;31.13;16.23;;;3.40;61.60;;;;;;4987317;28;20818;-51
2022/12/19 03:55:30;;;;;;;33.87;17.27;;;3.60;61.00;;;;;;4978155;28;20946;-50
2022/12/19 03:58:00;;;;;;;31.50;16.37;;;3.60;60.60;;;;;;4989867;28;20812;-50
2022/12/19 04:00:27;;;;;;;39.30;17.83;;;3.50;60.60;;;;;;4992254;28;20944;-50
2022/12/19 04:02:55;;;;;;;31.77;16.50;;;3.30;61.10;;;;;;4984402;28;20933;-50
2022/12/19 04:05:23;;;;;;;29.10;16.20;;;3.20;61.20;;;;;;4985922;28;20993;-50
2022/12/19 04:07:52;;;;;;;30.57;16.80;;;3.10;61.40;;;;;;4980905;28;20504;-52
2022/12/19 04:10:21;;;;;;;30.47;17.00;;;3.10;62.00;;;;;;4981108;28;21003;-55
2022/12/19 04:13:15;;;;;;;29.50;15.87;;;3.20;61.90;;;;;;4981978;28;20953;-54
2022/12/19 04:15:53;;;;;;;31.80;16.67;;;3.10;62.00;;;;;;4973848;28;20483;-54
2022/12/19 04:18:19;;;;;;;29.90;15.87;;;3.00;62.10;;;;;;4985094;28;20530;-54
2022/12/19 04:21:10;;;;;;;27.90;15.10;;;3.20;62.30;;;;;;4990927;28;20496;-52
2022/12/19 04:23:51;;;;;;;25.83;13.83;;;3.30;61.80;;;;;;4990784;28;20539;-50
2022/12/19 04:26:18;;;;;;;32.33;15.13;;;3.20;61.90;;;;;;4990449;28;20825;-54
2022/12/19 04:28:55;;;;;;;32.13;17.07;;;3.40;62.30;;;;;;4990235;28;20445;-50
2022/12/19 04:31:21;;;;;;;27.20;15.33;;;3.50;61.90;;;;;;4990476;28;20449;-51
2022/12/19 04:33:47;;;;;;;28.33;15.43;;;3.60;61.90;;;;;;4990120;28;20472;-50
2022/12/19 04:36:13;;;;;;;30.13;16.37;;;3.50;61.90;;;;;;4989120;28;20449;-50
2022/12/19 04:38:38;;;;;;;32.00;15.70;;;3.50;62.40;;;;;;4988228;28;20608;-50
2022/12/19 04:41:04;;;;;;;27.10;16.80;;;3.40;62.90;;;;;;4989569;28;20210;-51
2022/12/19 04:43:29;;;;;;;31.63;15.90;;;3.40;63.10;;;;;;4989353;28;20205;-54
2022/12/19 04:45:55;;;;;;;25.33;14.93;;;3.50;63.50;;;;;;4989243;28;20202;-52
2022/12/19 04:48:21;;;;;;;32.27;16.10;;;3.60;63.20;;;;;;4990504;28;20245;-51
2022/12/19 04:50:46;;;;;;;25.90;14.70;;;3.50;63.30;;;;;;4989693;28;20264;-50
2022/12/19 04:53:12;;;;;;;28.53;15.17;;;3.40;63.90;;;;;;4988428;28;20536;-50
2022/12/19 04:55:38;;;;;;;27.07;14.33;;;3.50;64.20;;;;;;4989784;28;20204;-51
2022/12/19 04:58:05;;;;;;;27.37;13.90;;;3.30;64.20;;;;;;4991893;28;20372;-51
2022/12/19 05:00:31;;;;;;;29.73;14.50;;;3.40;64.20;;;;;;4990602;28;21000;-50
2022/12/19 05:02:57;;;;;;;28.27;14.73;;;3.40;64.40;;;;;;4991694;28;20422;-51
2022/12/19 05:05:22;;;;;;;29.93;15.63;;;3.40;64.10;;;;;;4986978;28;20442;-51
2022/12/19 05:07:48;;;;;;;34.77;17.30;;;3.30;64.50;;;;;;4987119;28;21173;-52
2022/12/19 05:10:14;;;;;;;27.20;16.13;;;3.30;64.70;;;;;;4992871;28;20209;-54
2022/12/19 05:12:39;;;;;;;31.17;17.10;;;3.20;65.10;;;;;;4989414;28;20202;-52
2022/12/19 05:15:05;;;;;;;29.67;15.47;;;3.30;65.70;;;;;;4992124;28;20245;-50
2022/12/19 05:17:31;;;;;;;28.07;15.27;;;3.30;65.60;;;;;;4995800;28;20238;-51
2022/12/19 05:19:56;;;;;;;28.80;16.77;;;3.40;65.60;;;;;;4997509;28;20433;-51
2022/12/19 05:22:22;;;;;;;27.93;15.50;;;3.40;65.80;;;;;;4991826;28;20202;-51
2022/12/19 05:24:47;;;;;;;28.20;15.27;;;3.40;65.80;;;;;;4985689;28;20238;-52
2022/12/19 05:27:13;;;;;;;28.40;16.00;;;3.60;65.80;;;;;;4987288;28;20190;-50
2022/12/19 05:29:39;;;;;;;24.97;15.07;;;3.30;65.60;;;;;;4984985;28;20224;-52
2022/12/19 05:32:04;;;;;;;32.40;15.67;;;3.20;66.20;;;;;;4989477;28;20194;-53
2022/12/19 05:34:30;;;;;;;31.33;15.80;;;3.40;66.20;;;;;;4988032;28;20201;-51
2022/12/19 05:36:55;;;;;;;29.33;14.90;;;3.40;65.90;;;;;;4983139;28;20639;-53
2022/12/19 05:39:21;;;;;;;31.50;16.60;;;3.40;66.20;;;;;;4987173;28;20230;-51
2022/12/19 05:41:47;;;;;;;34.13;15.73;;;3.60;66.50;;;;;;4985087;28;20201;-50
2022/12/19 05:44:12;;;;;;;30.90;16.60;;;3.70;66.10;;;;;;4985510;28;20194;-52
2022/12/19 05:46:38;;;;;;;28.10;15.57;;;3.70;66.30;;;;;;4984093;28;20203;-51
2022/12/19 05:49:03;;;;;;;32.73;17.33;;;3.70;65.40;;;;;;4986120;28;20906;-51
2022/12/19 05:51:29;;;;;;;32.40;16.50;;;3.80;65.90;;;;;;4986664;28;20658;-51
2022/12/19 05:53:55;;;;;;;27.83;15.30;;;3.90;65.00;;;;;;4989310;28;20203;-52
2022/12/19 05:56:21;;;;;;;30.53;15.60;;;3.90;65.30;;;;;;4987265;28;20453;-51
2022/12/19 05:58:48;;;;;;;27.33;14.70;;;3.80;65.30;;;;;;4991075;28;22587;-51
2022/12/19 06:01:15;;;;;;;36.80;16.40;;;3.80;65.50;;;;;;4984513;28;21024;-51
2022/12/19 06:03:41;;;;;;;32.03;16.10;;;3.80;65.60;;;;;;4979211;28;20453;-53
2022/12/19 06:06:10;;;;;;;28.07;15.77;;;4.00;65.20;;;;;;4981711;28;20551;-52
2022/12/19 06:08:36;;;;;;;27.67;15.03;;;4.00;64.50;;;;;;4985360;28;21981;-51
2022/12/19 06:11:03;;;;;;;31.43;16.00;;;4.10;64.50;;;;;;4978554;28;20442;-52
2022/12/19 06:13:30;;;;;;;22.60;14.07;;;4.20;64.30;;;;;;4990806;28;20647;-52
2022/12/19 06:16:00;;;;;;;20.43;11.23;;;4.10;64.10;;;;;;4984851;28;20486;-54
2022/12/19 06:18:27;;;;;;;24.03;14.00;;;4.20;66.10;;;;;;4984452;28;20985;-55
2022/12/19 06:21:05;;;;;;;29.80;14.37;;;4.70;67.00;;;;;;4989716;28;20810;-52
2022/12/19 06:23:33;;;;;;;27.60;15.20;;;5.30;64.80;;;;;;4984078;28;20453;-55
2022/12/19 06:25:59;;;;;;;29.60;14.90;;;5.10;61.40;;;;;;4988466;28;20430;-51
2022/12/19 06:28:27;;;;;;;28.97;14.23;;;5.20;62.10;;;;;;4979505;28;20533;-53
2022/12/19 06:30:55;;;;;;;27.43;14.50;;;5.40;60.80;;;;;;4989122;28;20446;-51
2022/12/19 06:33:21;;;;;;;27.87;15.27;;;5.60;60.20;;;;;;4991796;28;20466;-52
2022/12/19 06:35:47;;;;;;;28.67;15.37;;;5.40;59.50;;;;;;4988183;28;20485;-51
2022/12/19 06:38:12;;;;;;;26.27;14.60;;;5.40;59.90;;;;;;4991254;28;20214;-51
2022/12/19 06:43:27;;;;;;;25.40;14.77;;;5.30;60.40;;;;;;4989990;28;20246;-52
2022/12/19 06:45:55;;;;;;;25.40;14.63;;;5.10;61.00;;;;;;4990114;28;20543;-53
2022/12/19 06:48:21;;;;;;;24.73;14.50;;;5.30;61.10;;;;;;4992515;28;20276;-50
2022/12/19 06:50:46;;;;;;;27.07;14.33;;;5.40;60.90;;;;;;4991061;28;20536;-52
2022/12/19 06:53:12;;;;;;;30.10;15.57;;;5.40;60.70;;;;;;4991501;28;20204;-54
2022/12/19 06:55:38;;;;;;;27.43;14.40;;;5.40;61.20;;;;;;4987301;28;21023;-52
2022/12/19 06:58:03;;;;;;;25.97;14.30;;;5.30;61.30;;;;;;4991261;28;20230;-51
2022/12/19 07:00:29;;;;;;;28.37;14.60;;;5.10;61.70;;;;;;4992070;28;20461;-53
2022/12/19 07:02:56;;;;;;;25.37;14.53;;;4.80;62.80;;;;;;4991464;28;20203;-51
2022/12/19 07:05:22;;;;;;;26.50;13.93;;;4.60;64.00;;;;;;4990578;28;20230;-51
2022/12/19 07:07:47;;;;;;;31.40;16.27;;;4.80;64.10;;;;;;4990199;28;20515;-52
2022/12/19 07:10:14;;;;;;;26.33;14.93;;;4.90;64.90;;;;;;4990782;28;20453;-52
2022/12/19 07:12:40;;;;;;;26.47;14.73;;;5.10;63.70;;;;;;4989780;28;20203;-53
2022/12/19 07:15:06;;;;;;;28.50;15.87;;;5.20;63.00;;;;;;4990122;28;20938;-53
2022/12/19 07:17:35;;;;;;;25.60;15.60;;;5.20;62.80;;;;;;4988731;28;20235;-51
2022/12/19 07:20:02;;;;;;;26.47;17.00;;;5.20;62.80;;;;;;4990994;28;20804;-51
2022/12/19 07:22:31;;;;;;;25.10;15.60;;;4.40;64.40;;;;;;4988869;28;20524;-53
2022/12/19 07:24:57;;;;;;;28.57;16.03;;;4.50;65.90;;;;;;4991940;28;20480;-50
2022/12/19 07:27:23;;;;;;;25.73;13.40;;;4.60;65.60;;;;;;4991570;28;20535;-53
2022/12/19 07:29:48;;;;;;;25.27;15.00;;;4.80;65.50;;;;;;4991889;28;20902;-50
2022/12/19 07:32:14;;;;;;;28.57;15.20;;;5.00;65.10;;;;;;4989387;28;20582;-50
2022/12/19 07:34:40;;;;;;;29.10;15.67;;;5.00;64.50;;;;;;4989547;28;20221;-53
2022/12/19 07:37:06;;;;;;;30.77;15.47;;;4.80;64.80;;;;;;4991147;28;20253;-50
2022/12/19 07:39:32;;;;;;;26.33;14.70;;;4.70;65.50;;;;;;4992128;28;20241;-51
2022/12/19 07:41:57;;;;;;;31.63;17.10;;;4.80;65.80;;;;;;4991407;28;20450;-53
2022/12/19 07:44:23;;;;;;;27.80;15.30;;;5.00;65.20;;;;;;4991796;28;20190;-54
2022/12/19 07:46:48;;;;;;;26.27;16.47;;;5.00;64.30;;;;;;4992183;28;20272;-51
2022/12/19 07:49:14;;;;;;;28.23;15.77;;;4.90;64.40;;;;;;4988511;28;20190;-53
2022/12/19 07:51:39;;;;;;;31.83;15.70;;;4.80;65.00;;;;;;4991674;28;20561;-51
2022/12/19 07:54:05;;;;;;;28.47;16.80;;;4.80;65.70;;;;;;4990397;28;20205;-52
2022/12/19 07:56:31;;;;;;;26.47;15.10;;;4.90;65.60;;;;;;4989617;28;20224;-51
2022/12/19 07:58:56;;;;;;;29.33;14.80;;;5.20;64.80;;;;;;4989589;28;20737;-51
2022/12/19 08:01:22;;;;;;;28.97;15.57;;;5.20;64.30;;;;;;4991147;28;20566;-51
2022/12/19 08:03:47;;;;;;;30.07;15.73;;;5.20;64.20;;;;;;4987660;28;20202;-50
2022/12/19 08:06:13;;;;;;;28.63;15.40;;;5.20;65.40;;;;;;4989482;28;20218;-50
2022/12/19 08:08:39;;;;;;;25.43;15.80;;;5.40;64.50;;;;;;4991313;28;20724;-51
2022/12/19 08:11:10;;;;;;;23.97;14.80;;;5.40;64.00;;;;;;4991908;28;20225;-52
2022/12/19 08:13:36;;;;;;;22.47;13.97;;;5.40;64.10;;;;;;4986845;28;20298;-54
2022/12/19 08:16:02;;;;;;;32.33;17.00;;;5.50;63.90;;;;;;4990689;28;20481;-53
2022/12/19 08:18:28;;;;;;;28.17;16.10;;;5.40;63.90;;;;;;4989938;28;20493;-52
2022/12/19 08:20:53;;;;;;;27.87;16.27;;;5.20;64.50;;;;;;4989482;28;20961;-53
2022/12/19 08:23:20;;;;;;;30.00;17.17;;;5.20;64.90;;;;;;4988334;28;20195;-53
2022/12/19 08:25:45;;;;;;;29.30;15.33;;;5.20;64.60;;;;;;4988775;28;20203;-54
2022/12/19 08:28:11;;;;;;;26.50;15.60;;;5.30;65.10;;;;;;4991106;28;20560;-52
2022/12/19 08:30:40;;;;;;;30.20;18.30;;;5.30;64.90;;;;;;4991982;28;20191;-52
2022/12/19 08:33:06;;;;;;;27.93;15.60;;;5.40;65.20;;;;;;4991723;28;20558;-53
2022/12/19 08:35:32;;;;;;;28.30;16.40;;;5.60;64.80;;;;;;4990542;28;20457;-52
2022/12/19 08:37:58;;;;;;;25.27;14.47;;;5.80;63.80;;;;;;4991621;28;21014;-53
2022/12/19 08:40:24;;;;;;;31.57;15.83;;;5.80;63.80;;;;;;4991845;28;20426;-54
2022/12/19 08:42:49;;;;;;;26.40;14.90;;;5.90;63.70;;;;;;4994235;28;20650;-54
2022/12/19 08:45:17;;;;;;;24.37;14.90;;;6.10;63.40;;;;;;4994307;28;20202;-53
2022/12/19 08:47:43;;;;;;;27.63;15.07;;;6.30;62.80;;;;;;4976033;28;20334;-54
2022/12/19 08:50:09;;;;;;;26.47;14.23;;;6.30;62.50;;;;;;4973445;28;20443;-54
2022/12/19 08:52:35;;;;;;;31.23;16.80;;;6.30;63.00;;;;;;4975955;28;20441;-53
2022/12/19 08:55:01;;;;;;;30.47;16.80;;;6.30;62.40;;;;;;4980373;28;20968;-54
2022/12/19 08:57:26;;;;;;;26.70;15.37;;;6.20;62.50;;;;;;4992115;28;20186;-53
2022/12/19 08:59:52;;;;;;;25.40;16.80;;;6.40;62.70;;;;;;4995169;28;20320;-54
2022/12/19 09:02:17;;;;;;;27.23;15.23;;;6.30;62.80;;;;;;4990215;28;20206;-51
2022/12/19 09:04:43;;;;;;;24.63;15.23;;;6.20;63.10;;;;;;4989847;28;20217;-55
2022/12/19 09:07:09;;;;;;;27.07;16.27;;;6.30;63.30;;;;;;4988131;28;20670;-54
2022/12/19 09:09:34;;;;;;;25.83;16.13;;;6.50;63.00;;;;;;5007414;28;20210;-54
2022/12/19 09:12:00;;;;;;;25.10;15.57;;;6.50;62.20;;;;;;4994062;28;20903;-55
2022/12/19 09:14:25;;;;;;;24.97;15.50;;;6.30;62.70;;;;;;4987100;28;20606;-54
2022/12/19 09:16:51;;;;;;;26.67;15.70;;;6.10;63.80;;;;;;4999709;28;20317;-56
2022/12/19 09:19:16;;;;;;;22.60;14.80;;;6.00;64.40;;;;;;4990607;28;20709;-54
2022/12/19 09:21:43;;;;;;;26.70;14.60;;;6.00;64.90;;;;;;4994667;28;20194;-54
2022/12/19 09:24:09;;;;;;;24.93;15.20;;;6.20;64.70;;;;;;4990854;28;20714;-52
2022/12/19 09:26:38;;;;;;;27.97;15.73;;;6.10;64.30;;;;;;4994205;28;20449;-54
2022/12/19 09:29:04;;;;;;;25.53;15.30;;;5.90;65.50;;;;;;4991957;28;20536;-55
2022/12/19 09:31:30;;;;;;;24.70;15.30;;;6.10;65.50;;;;;;4987741;28;20446;-54
2022/12/19 09:33:55;;;;;;;25.60;14.80;;;6.20;65.50;;;;;;4993323;28;20504;-55
2022/12/19 09:36:23;;;;;;;25.17;15.80;;;6.40;65.10;;;;;;4989031;28;20194;-54
2022/12/19 09:38:51;;;;;;;28.80;17.50;;;6.50;64.30;;;;;;4991324;28;20280;-54
2022/12/19 09:41:47;;;;;;;25.63;15.07;;;6.50;64.10;;;;;;4991431;28;20449;-54
2022/12/19 09:44:51;;;;;;;31.53;17.90;;;6.70;64.00;;;;;;4991640;28;20822;-53
2022/12/19 09:47:31;;;;;;;26.23;15.40;;;6.70;63.20;;;;;;4993213;28;20580;-54
2022/12/19 09:49:58;;;;;;;23.00;14.30;;;6.70;63.10;;;;;;4990263;28;20449;-55
2022/12/19 09:52:40;;;;;;;27.70;14.90;;;6.60;64.10;;;;;;4991571;28;20481;-55
2022/12/19 09:55:30;;;;;;;30.30;14.40;;;6.40;65.10;;;;;;4993301;28;20812;-55
2022/12/19 09:58:11;;;;;;;29.20;15.90;;;6.50;65.30;;;;;;4992025;28;20969;-56
2022/12/19 10:00:51;;;;;;;26.43;14.90;;;6.60;65.40;;;;;;4992135;28;20445;-56
2022/12/19 10:03:28;;;;;;;26.10;15.23;;;6.60;65.00;;;;;;4992649;28;20450;-55
2022/12/19 10:06:23;;;;;;;25.40;13.80;;;6.60;65.30;;;;;;4980592;28;20449;-58
2022/12/19 10:08:50;;;;;;;26.37;13.03;;;6.60;65.60;;;;;;4990341;28;20450;-57
2022/12/19 10:11:16;;;;;;;20.03;12.37;;;6.60;66.50;;;;;;4985499;28;20839;-58
2022/12/19 10:14:12;;;;;;;22.03;14.30;;;7.00;67.10;;;;;;4991091;28;20438;-58
2022/12/19 10:17:07;;;;;;;26.10;13.97;;;7.50;65.00;;;;;;4992654;28;20267;-58
2022/12/19 10:20:17;;;;;;;21.07;13.30;;;8.00;63.30;;;;;;4998598;28;21112;-59
2022/12/19 10:22:48;;;;;;;19.80;13.47;;;8.30;61.20;;;;;;4967756;28;20499;-58
2022/12/19 10:25:53;;;;;;;21.30;12.90;;;8.70;59.90;;;;;;4987849;28;20454;-58
2022/12/19 10:28:21;;;;;;;23.97;14.50;;;8.90;59.30;;;;;;4951559;28;20788;-58
2022/12/19 10:31:00;;;;;;;21.63;13.47;;;8.90;58.90;;;;;;4951052;28;20446;-59
2022/12/19 10:33:38;;;;;;;19.53;13.17;;;9.20;58.70;;;;;;4964795;28;20465;-59
2022/12/19 10:36:08;;;;;;;20.37;13.90;;;9.40;58.00;;;;;;4981069;28;20454;-59
2022/12/19 10:38:43;;;;;;;22.13;14.40;;;9.70;57.60;;;;;;4991841;28;20533;-59
2022/12/19 10:41:21;;;;;;;23.60;14.63;;;10.00;56.00;;;;;;4990641;28;20464;-59
2022/12/19 10:44:09;;;;;;;21.77;13.90;;;10.10;55.50;;;;;;4990467;28;20516;-59
2022/12/19 10:46:38;;;;;;;20.40;14.67;;;10.10;54.90;;;;;;4981502;28;20470;-58
2022/12/19 10:49:18;;;;;;;24.97;14.83;;;10.10;55.10;;;;;;4990540;28;20818;-58
2022/12/19 10:52:04;;;;;;;22.77;14.67;;;9.90;55.90;;;;;;4989445;28;20449;-58
2022/12/19 10:54:36;;;;;;;25.57;15.50;;;9.90;56.20;;;;;;4985161;28;20445;-58
2022/12/19 10:57:22;;;;;;;20.67;14.17;;;10.10;55.20;;;;;;4989002;28;20965;-58
2022/12/19 11:00:02;;;;;;;21.67;13.80;;;10.20;54.90;;;;;;4988539;28;20598;-58
2022/12/19 11:02:37;;;;;;;25.03;14.90;;;10.30;54.70;;;;;;4977690;28;20465;-58
2022/12/19 11:05:18;;;;;;;25.73;14.80;;;10.40;54.10;;;;;;4974143;28;20808;-59
2022/12/19 11:08:07;;;;;;;23.77;16.53;;;10.30;53.90;;;;;;4986711;28;20541;-59
2022/12/19 11:10:34;;;;;;;19.90;13.70;;;10.20;54.30;;;;;;4977826;28;20454;-59
2022/12/19 11:13:00;;;;;;;20.67;13.40;;;10.20;54.70;;;;;;4988305;28;20448;-59
2022/12/19 11:15:26;;;;;;;22.93;14.87;;;10.20;54.50;;;;;;4987444;28;20453;-59
2022/12/19 11:17:51;;;;;;;22.23;15.20;;;10.30;54.70;;;;;;4988755;28;21155;-59
2022/12/19 11:20:20;;;;;;;26.00;16.23;;;10.30;54.70;;;;;;4991938;28;20685;-59
2022/12/19 11:22:56;;;;;;;22.60;14.80;;;10.40;54.40;;;;;;4984997;28;20201;-59
2022/12/19 11:25:37;;;;;;;26.60;16.37;;;10.60;54.20;;;;;;4987353;28;20481;-59
2022/12/19 11:28:12;;;;;;;24.43;14.83;;;10.60;53.60;;;;;;4987428;28;20453;-59
2022/12/19 11:30:40;;;;;;;22.00;14.80;;;10.50;54.40;;;;;;4989880;28;20476;-59
2022/12/19 11:33:12;;;;;;;24.50;14.13;;;10.30;54.60;;;;;;4991518;28;20446;-59
2022/12/19 11:35:53;;;;;;;24.40;14.83;;;10.20;54.60;;;;;;4986920;28;20442;-59
2022/12/19 11:38:44;;;;;;;21.83;15.27;;;10.20;54.90;;;;;;4984932;28;20886;-59
2022/12/19 11:41:28;;;;;;;26.13;15.67;;;10.30;54.80;;;;;;4987253;28;20454;-59
2022/12/19 11:44:15;;;;;;;21.83;13.27;;;10.50;54.70;;;;;;4989087;28;20532;-59
2022/12/19 11:46:48;;;;;;;25.20;15.43;;;10.60;54.50;;;;;;4983701;28;20463;-58
2022/12/19 11:49:25;;;;;;;25.60;16.40;;;10.60;54.20;;;;;;4989363;28;20450;-58
2022/12/19 11:52:20;;;;;;;22.03;15.13;;;10.50;54.30;;;;;;4990785;28;20976;-58
2022/12/19 11:55:01;;;;;;;23.10;14.37;;;10.10;54.90;;;;;;4975085;28;20528;-58
2022/12/19 11:57:27;;;;;;;22.40;15.50;;;9.90;56.70;;;;;;4988257;28;20772;-58
2022/12/19 11:59:53;;;;;;;21.30;16.20;;;10.00;55.80;;;;;;4990196;28;21008;-58
2022/12/19 12:02:40;;;;;;;22.70;16.20;;;10.10;55.90;;;;;;4991164;28;20218;-58
2022/12/19 12:05:46;;;;;;;24.57;16.07;;;9.90;56.10;;;;;;4988167;28;20450;-58
2022/12/19 12:08:33;;;;;;;23.17;15.67;;;10.00;55.70;;;;;;4983090;28;20456;-58
2022/12/19 12:11:06;;;;;;;25.17;16.30;;;10.00;56.00;;;;;;4990282;28;21007;-58
2022/12/19 12:14:13;;;;;;;23.10;15.97;;;9.90;56.90;;;;;;4987106;28;20464;-58
2022/12/19 12:16:45;;;;;;;25.23;16.40;;;9.70;58.00;;;;;;4989936;28;20488;-58
2022/12/19 12:20:02;;;;;;;27.13;17.07;;;9.40;58.80;;;;;;4989504;28;21055;-58
2022/12/19 12:22:46;;;;;;;23.50;15.10;;;9.40;59.10;;;;;;4946230;28;20465;-58
2022/12/19 12:26:04;;;;;;;24.57;16.70;;;9.80;58.20;;;;;;4986871;28;20830;-57
2022/12/19 12:28:51;;;;;;;22.50;15.87;;;9.70;58.30;;;;;;4947166;28;20459;-57
2022/12/19 12:31:38;;;;;;;24.50;16.37;;;9.60;58.10;;;;;;4984253;28;20500;-58
2022/12/19 12:34:25;;;;;;;24.97;17.33;;;9.60;58.30;;;;;;4980944;28;20804;-58
2022/12/19 12:37:33;;;;;;;28.90;14.93;;;9.90;58.30;;;;;;4982547;28;20453;-58
2022/12/19 12:40:21;;;;;;;23.70;15.70;;;9.70;58.50;;;;;;4989494;28;20525;-57
2022/12/19 12:43:06;;;;;;;27.47;16.77;;;9.70;58.90;;;;;;4982546;28;20850;-58
2022/12/19 12:45:39;;;;;;;25.30;16.50;;;9.70;58.50;;;;;;4985597;28;20468;-58
2022/12/19 12:48:19;;;;;;;28.20;16.80;;;9.60;58.70;;;;;;4985183;28;20458;-59
2022/12/19 12:50:47;;;;;;;25.07;15.90;;;9.80;59.10;;;;;;4984322;28;20464;-57
2022/12/19 12:53:18;;;;;;;27.33;17.37;;;9.90;58.90;;;;;;4979861;28;20544;-57
2022/12/19 12:55:44;;;;;;;24.80;17.43;;;10.00;57.50;;;;;;4984052;28;20453;-57
2022/12/19 12:58:50;;;;;;;22.93;17.03;;;10.10;57.30;;;;;;4990553;28;21019;-57
2022/12/19 13:01:23;;;;;;;30.13;17.50;;;10.20;56.80;;;;;;4931927;29;20861;-59
2022/12/19 13:04:10;;;;;;;21.90;16.20;;;10.30;56.80;;;;;;4929919;29;20460;-57
2022/12/19 13:06:39;;;;;;;20.87;15.43;;;10.50;56.10;;;;;;4963232;28;20929;-57